Yellow Grass, Canada
Current Conditions -  °F | °C
As of 8:00 AM on Friday 19 Dec 2014 (Local Time) from CYQR Reporting Station
Moderate Fog Moderate Fog  
Wind Chill: 10°   Ceiling: 200
Heat Index: 19°   Visibility: 0.5mi
Dew Point: 18°   Wind: 7mph
Humidity: 93%   Direction: 290°WNW
Pressure: 29.91"   Gusts: NA
Location:  49.82°N, 104.15°W
Report Text: CYQR 191400Z 29006KT 1/2SM R13/5000FT/N FZFG VV002 M07/M08 A2991 RMK FG8 FROIN SLP166
Loading
Personal Weather Stations






























Interactive Weather Map New forecast layout! Learn more

10-Day Weather Forecast

Advertisements
Track Severe Weather on mobile